createdAt,value
2022-12-15T00:01:12.115Z,21.00
2022-12-15T00:03:58.727Z,21.00
2022-12-15T00:06:45.412Z,20.90
2022-12-15T00:09:31.923Z,20.90
2022-12-15T00:12:18.811Z,20.90
2022-12-15T00:15:05.683Z,20.90
2022-12-15T00:17:53.544Z,20.90
2022-12-15T00:20:40.386Z,20.90
2022-12-15T00:23:27.967Z,20.90
2022-12-15T00:26:15.109Z,20.90
2022-12-15T00:29:02.007Z,20.90
2022-12-15T00:31:48.665Z,20.80
2022-12-15T00:34:36.943Z,20.80
2022-12-15T00:37:23.742Z,20.80
2022-12-15T00:39:59.417Z,20.80
2022-12-15T00:42:28.907Z,20.80
2022-12-15T00:44:58.928Z,20.80
2022-12-15T00:47:27.059Z,20.80
2022-12-15T00:50:15.299Z,20.80
2022-12-15T00:53:02.184Z,20.80
2022-12-15T00:55:48.911Z,20.70
2022-12-15T00:58:35.661Z,20.70
2022-12-15T01:01:25.690Z,20.70
2022-12-15T01:04:12.971Z,20.70
2022-12-15T01:07:01.078Z,20.70
2022-12-15T01:09:47.912Z,20.70
2022-12-15T01:12:34.614Z,20.70
2022-12-15T01:15:21.414Z,20.70
2022-12-15T01:18:08.133Z,20.70
2022-12-15T01:20:37.531Z,20.60
2022-12-15T01:23:08.096Z,20.60
2022-12-15T01:25:40.478Z,20.60
2022-12-15T01:28:09.778Z,20.60
2022-12-15T01:30:38.999Z,20.60
2022-12-15T01:33:08.178Z,20.60
2022-12-15T01:35:37.433Z,20.60
2022-12-15T01:38:08.596Z,20.60
2022-12-15T01:40:46.999Z,20.60
2022-12-15T01:43:18.691Z,20.60
2022-12-15T01:45:54.735Z,20.60
2022-12-15T01:48:41.686Z,20.60
2022-12-15T01:51:26.615Z,20.60
2022-12-15T01:54:01.529Z,20.50
2022-12-15T01:56:37.415Z,20.50
2022-12-15T01:59:10.621Z,20.50
2022-12-15T02:01:40.546Z,20.50
2022-12-15T02:04:13.220Z,20.50
2022-12-15T02:06:42.566Z,20.50
2022-12-15T02:09:13.363Z,20.50
2022-12-15T02:11:57.081Z,20.50
2022-12-15T02:14:44.919Z,20.50
2022-12-15T02:17:24.953Z,20.50
2022-12-15T02:20:27.643Z,20.50
2022-12-15T02:23:28.633Z,20.40
2022-12-15T02:26:32.731Z,20.40
2022-12-15T02:29:19.342Z,20.40
2022-12-15T02:31:54.144Z,20.40
2022-12-15T02:34:30.163Z,20.30
2022-12-15T02:37:03.175Z,20.40
2022-12-15T02:39:32.829Z,20.30
2022-12-15T02:42:02.067Z,20.30
2022-12-15T02:44:36.887Z,20.30
2022-12-15T02:47:24.991Z,20.30
2022-12-15T02:52:55.369Z,20.40
2022-12-15T02:55:31.872Z,20.30
2022-12-15T02:58:06.141Z,20.30
2022-12-15T03:00:39.774Z,20.30
2022-12-15T03:03:10.893Z,20.30
2022-12-15T03:05:41.106Z,20.30
2022-12-15T03:08:10.743Z,20.30
2022-12-15T03:10:40.068Z,20.30
2022-12-15T03:13:09.294Z,20.30
2022-12-15T03:15:38.557Z,20.30
2022-12-15T03:18:09.336Z,20.30
2022-12-15T03:20:38.560Z,20.30
2022-12-15T03:23:07.695Z,20.20
2022-12-15T03:25:36.890Z,20.30
2022-12-15T03:28:06.287Z,20.20
2022-12-15T03:30:35.657Z,20.20
2022-12-15T03:33:04.893Z,20.20
2022-12-15T03:35:35.783Z,20.20
2022-12-15T03:38:05.038Z,20.20
2022-12-15T03:40:34.366Z,20.20
2022-12-15T03:43:03.658Z,20.20
2022-12-15T03:45:32.926Z,20.20
2022-12-15T03:48:02.259Z,20.10
2022-12-15T03:50:31.789Z,20.10
2022-12-15T03:53:04.834Z,20.10
2022-12-15T03:55:35.289Z,20.20
2022-12-15T03:58:04.568Z,20.20
2022-12-15T04:00:34.072Z,20.10
2022-12-15T04:03:03.381Z,20.10
2022-12-15T04:05:34.561Z,20.10
2022-12-15T04:08:06.166Z,20.10
2022-12-15T04:10:36.633Z,20.10
2022-12-15T04:13:09.224Z,20.10
2022-12-15T04:15:40.696Z,20.10
2022-12-15T04:18:11.970Z,20.10
2022-12-15T04:20:41.901Z,20.00
2022-12-15T04:23:12.463Z,20.10
2022-12-15T04:25:59.137Z,20.00
2022-12-15T04:28:45.931Z,20.00
2022-12-15T04:31:36.844Z,20.00
2022-12-15T04:34:25.249Z,20.00
2022-12-15T04:37:12.952Z,20.00
2022-12-15T04:40:04.168Z,20.00
2022-12-15T04:42:52.440Z,19.90
2022-12-15T04:45:41.917Z,20.00
2022-12-15T04:48:29.017Z,20.00
2022-12-15T04:51:15.839Z,20.00
2022-12-15T04:54:03.483Z,20.00
2022-12-15T04:56:52.214Z,20.00
2022-12-15T04:59:39.121Z,19.90
2022-12-15T05:02:25.797Z,19.90
2022-12-15T05:05:12.580Z,19.90
2022-12-15T05:07:59.305Z,19.90
2022-12-15T05:10:46.285Z,19.90
2022-12-15T05:13:34.428Z,19.90
2022-12-15T05:16:24.497Z,19.90
2022-12-15T05:19:11.107Z,19.80
2022-12-15T05:21:58.050Z,19.80
2022-12-15T05:24:44.908Z,19.80
2022-12-15T05:27:31.842Z,19.80
2022-12-15T05:30:19.755Z,19.80
2022-12-15T05:32:49.891Z,19.80
2022-12-15T05:35:19.379Z,19.80
2022-12-15T05:37:48.695Z,19.80
2022-12-15T05:40:18.053Z,19.80
2022-12-15T05:42:50.260Z,19.80
2022-12-15T05:45:21.168Z,19.80
2022-12-15T05:47:52.811Z,19.80
2022-12-15T05:50:23.576Z,19.80
2022-12-15T05:52:52.819Z,19.80
2022-12-15T05:55:22.488Z,19.80
2022-12-15T05:57:54.163Z,19.70
2022-12-15T06:00:25.337Z,19.70
2022-12-15T06:02:55.174Z,19.70
2022-12-15T06:05:24.810Z,19.70
2022-12-15T06:07:54.891Z,19.70
2022-12-15T06:10:24.582Z,19.70
2022-12-15T06:12:54.476Z,19.70
2022-12-15T06:15:25.820Z,19.70
2022-12-15T06:17:56.123Z,19.70
2022-12-15T06:20:25.632Z,19.70
2022-12-15T06:22:54.900Z,19.70
2022-12-15T06:25:24.206Z,19.70
2022-12-15T06:27:58.342Z,19.70
2022-12-15T06:30:32.358Z,19.70
2022-12-15T06:33:01.699Z,19.70
2022-12-15T06:35:31.212Z,19.70
2022-12-15T06:38:00.888Z,19.70
2022-12-15T06:40:34.776Z,19.70
2022-12-15T06:43:07.843Z,19.70
2022-12-15T06:45:38.638Z,19.70
2022-12-15T06:48:10.114Z,19.70
2022-12-15T06:50:41.177Z,19.70
2022-12-15T06:53:10.656Z,19.70
2022-12-15T06:55:39.990Z,19.70
2022-12-15T06:58:09.509Z,19.70
2022-12-15T07:00:41.324Z,19.70
2022-12-15T07:03:15.573Z,19.70
2022-12-15T07:05:45.684Z,19.70
2022-12-15T07:08:16.160Z,19.70
2022-12-15T07:10:46.083Z,19.70
2022-12-15T07:13:15.882Z,19.70
2022-12-15T07:15:47.375Z,19.70
2022-12-15T07:18:17.459Z,19.70
2022-12-15T07:20:46.699Z,19.60
2022-12-15T07:23:29.694Z,19.60
2022-12-15T07:26:12.020Z,19.60
2022-12-15T07:28:42.585Z,19.60
2022-12-15T07:31:14.198Z,19.60
2022-12-15T07:33:43.712Z,19.60
2022-12-15T07:36:13.346Z,19.50
2022-12-15T07:38:42.855Z,19.60
2022-12-15T07:41:12.155Z,19.60
2022-12-15T07:43:41.530Z,19.60
2022-12-15T07:46:11.061Z,19.60
2022-12-15T07:48:41.760Z,19.60
2022-12-15T07:51:19.052Z,19.60
2022-12-15T07:53:49.609Z,19.60
2022-12-15T07:56:19.459Z,19.50
2022-12-15T07:58:49.000Z,19.60
2022-12-15T08:01:19.989Z,19.60
2022-12-15T08:03:51.842Z,19.60
2022-12-15T08:06:21.749Z,19.60
2022-12-15T08:08:51.521Z,19.60
2022-12-15T08:11:23.326Z,19.60
2022-12-15T08:14:02.441Z,19.60
2022-12-15T08:16:34.804Z,19.60
2022-12-15T08:19:06.646Z,19.60
2022-12-15T08:21:36.138Z,19.60
2022-12-15T08:24:05.932Z,19.60
2022-12-15T08:26:35.618Z,19.60
2022-12-15T08:31:55.381Z,19.70
2022-12-15T08:34:26.262Z,19.70
2022-12-15T08:36:56.903Z,19.70
2022-12-15T08:39:26.305Z,19.70
2022-12-15T08:41:55.771Z,19.80
2022-12-15T08:44:25.034Z,19.80
2022-12-15T08:46:54.285Z,19.90
2022-12-15T08:49:23.633Z,19.90
2022-12-15T08:51:54.487Z,19.90
2022-12-15T08:54:23.928Z,20.00
2022-12-15T08:56:53.293Z,20.00
2022-12-15T08:59:23.052Z,20.00
2022-12-15T09:01:52.442Z,20.00
2022-12-15T09:04:22.018Z,20.10
2022-12-15T09:06:51.538Z,20.10
2022-12-15T09:09:22.407Z,20.10
2022-12-15T09:11:52.045Z,20.20
2022-12-15T09:14:28.925Z,20.20
2022-12-15T09:16:59.223Z,20.20
2022-12-15T09:19:29.199Z,20.20
2022-12-15T09:21:58.479Z,20.30
2022-12-15T09:24:35.092Z,20.30
2022-12-15T09:27:05.457Z,20.30
2022-12-15T09:29:35.412Z,20.30
2022-12-15T09:32:10.542Z,20.30
2022-12-15T09:34:43.548Z,20.30
2022-12-15T09:37:13.513Z,20.30
2022-12-15T09:39:44.369Z,20.40
2022-12-15T09:42:25.062Z,20.40
2022-12-15T09:45:02.473Z,20.30
2022-12-15T09:47:41.095Z,20.40
2022-12-15T09:50:13.835Z,20.40
2022-12-15T09:52:49.221Z,20.40
2022-12-15T09:55:23.464Z,20.50
2022-12-15T09:57:55.516Z,20.50
2022-12-15T10:00:26.315Z,20.50
2022-12-15T10:03:34.513Z,20.50
2022-12-15T10:06:21.584Z,20.60
2022-12-15T10:08:56.059Z,20.60
2022-12-15T10:11:41.970Z,20.60
2022-12-15T10:14:20.553Z,20.60
2022-12-15T10:17:00.167Z,20.70
2022-12-15T10:19:38.526Z,20.60
2022-12-15T10:22:12.023Z,20.70
2022-12-15T10:27:54.993Z,20.70
2022-12-15T10:30:25.187Z,20.80
2022-12-15T10:33:02.669Z,20.80
2022-12-15T10:35:34.510Z,20.80
2022-12-15T10:38:06.603Z,20.80
2022-12-15T10:40:50.516Z,20.80
2022-12-15T10:43:31.094Z,20.80
2022-12-15T10:46:15.073Z,20.80
2022-12-15T10:51:38.680Z,20.80
2022-12-15T10:54:14.863Z,20.80
2022-12-15T10:56:51.876Z,20.90
2022-12-15T10:59:27.868Z,20.90
2022-12-15T11:01:57.342Z,20.90
2022-12-15T11:04:28.809Z,20.90
2022-12-15T11:06:59.847Z,20.90
2022-12-15T11:09:35.570Z,20.90
2022-12-15T11:12:36.258Z,20.90
2022-12-15T11:15:47.160Z,20.90
2022-12-15T11:18:33.869Z,20.90
2022-12-15T11:21:06.670Z,20.90
2022-12-15T11:23:50.423Z,20.90
2022-12-15T11:26:32.333Z,20.90
2022-12-15T11:29:08.320Z,20.90
2022-12-15T11:31:44.311Z,20.90
2022-12-15T11:34:16.015Z,20.90
2022-12-15T11:37:14.703Z,20.90
2022-12-15T11:39:59.107Z,20.90
2022-12-15T11:42:40.436Z,20.90
2022-12-15T11:45:19.904Z,20.90
2022-12-15T11:47:53.809Z,21.00
2022-12-15T11:50:31.858Z,21.00
2022-12-15T11:53:31.045Z,21.00
2022-12-15T11:56:13.078Z,21.00
2022-12-15T11:59:05.905Z,21.00
2022-12-15T12:02:03.580Z,21.00
2022-12-15T12:04:44.979Z,21.10
2022-12-15T12:07:26.143Z,21.10
2022-12-15T12:10:06.695Z,21.10
2022-12-15T12:12:45.298Z,21.10
2022-12-15T12:15:28.036Z,21.20
2022-12-15T12:18:03.365Z,21.20
2022-12-15T12:20:42.381Z,21.20
2022-12-15T12:23:18.750Z,21.20
2022-12-15T12:26:02.944Z,21.30
2022-12-15T12:28:43.930Z,21.30
2022-12-15T12:31:24.234Z,21.30
2022-12-15T12:34:00.231Z,21.30
2022-12-15T12:36:31.382Z,21.40
2022-12-15T12:39:01.141Z,21.40
2022-12-15T12:41:37.983Z,21.40
2022-12-15T12:44:15.721Z,21.40
2022-12-15T12:46:49.118Z,21.40
2022-12-15T12:49:27.213Z,21.50
2022-12-15T12:51:59.892Z,21.50
2022-12-15T12:55:00.373Z,21.50
2022-12-15T12:57:36.473Z,21.50
2022-12-15T13:00:25.062Z,21.50
2022-12-15T13:03:11.172Z,21.50
2022-12-15T13:05:41.485Z,21.50
2022-12-15T13:08:51.662Z,21.50
2022-12-15T13:11:58.113Z,21.50
2022-12-15T13:14:51.979Z,21.50
2022-12-15T13:17:30.662Z,21.50
2022-12-15T13:20:24.745Z,21.50
2022-12-15T13:22:55.439Z,21.50
2022-12-15T13:25:40.988Z,21.50
2022-12-15T13:28:44.075Z,21.50
2022-12-15T13:31:29.179Z,21.50
2022-12-15T13:34:19.749Z,21.40
2022-12-15T13:36:56.733Z,21.40
2022-12-15T13:39:59.471Z,21.40
2022-12-15T13:45:42.729Z,21.40
2022-12-15T13:48:31.899Z,21.30
2022-12-15T13:51:21.416Z,21.20
2022-12-15T13:53:56.687Z,21.10
2022-12-15T13:56:40.564Z,20.90
2022-12-15T13:59:20.237Z,20.90
2022-12-15T14:01:54.115Z,21.00
2022-12-15T14:04:24.897Z,21.00
2022-12-15T14:06:56.087Z,21.00
2022-12-15T14:09:31.566Z,21.00
2022-12-15T14:12:02.977Z,21.00
2022-12-15T14:14:36.356Z,21.10
2022-12-15T14:17:14.548Z,21.00
2022-12-15T14:19:46.826Z,21.10
2022-12-15T14:22:29.031Z,21.00
2022-12-15T14:25:05.237Z,21.10
2022-12-15T14:27:35.225Z,21.10
2022-12-15T14:30:20.821Z,21.10
2022-12-15T14:32:54.397Z,21.10
2022-12-15T14:35:31.408Z,21.20
2022-12-15T14:38:03.881Z,21.20
2022-12-15T14:40:35.919Z,21.30
2022-12-15T14:43:06.329Z,21.30
2022-12-15T14:45:35.825Z,21.30
2022-12-15T14:51:04.185Z,21.40
2022-12-15T14:53:37.593Z,21.40
2022-12-15T14:56:30.885Z,21.40
2022-12-15T14:59:04.090Z,21.40
2022-12-15T15:01:40.255Z,21.40
2022-12-15T15:03:05.640Z,21.40
2022-12-15T15:03:10.108Z,20.80
2022-12-15T15:04:26.335Z,21.50
2022-12-15T15:06:58.603Z,21.50
2022-12-15T15:09:29.097Z,21.50
2022-12-15T15:12:03.165Z,21.50
2022-12-15T15:14:38.873Z,21.50
2022-12-15T15:17:10.678Z,21.50
2022-12-15T15:19:47.719Z,21.50
2022-12-15T15:22:36.293Z,21.50
2022-12-15T15:25:26.740Z,21.60
2022-12-15T15:28:05.247Z,21.60
2022-12-15T15:30:44.111Z,21.60
2022-12-15T15:33:14.001Z,21.60
2022-12-15T15:35:44.600Z,21.60
2022-12-15T15:38:21.479Z,21.60
2022-12-15T15:40:52.673Z,21.60
2022-12-15T15:43:22.192Z,21.60
2022-12-15T15:45:55.228Z,21.60
2022-12-15T15:48:27.702Z,21.60
2022-12-15T15:50:57.237Z,21.60
2022-12-15T15:53:28.545Z,21.60
2022-12-15T15:55:57.926Z,21.60
2022-12-15T15:58:27.432Z,21.60
2022-12-15T16:00:56.810Z,21.60
2022-12-15T16:03:26.683Z,21.60
2022-12-15T16:05:56.279Z,21.60
2022-12-15T16:08:32.847Z,21.60
2022-12-15T16:11:03.147Z,21.60
2022-12-15T16:13:32.435Z,21.50
2022-12-15T16:16:02.393Z,21.50
2022-12-15T16:18:32.905Z,21.50
2022-12-15T16:21:02.581Z,21.50
2022-12-15T16:23:33.414Z,21.40
2022-12-15T16:26:03.042Z,21.40
2022-12-15T16:28:33.627Z,21.50
2022-12-15T16:31:03.391Z,21.50
2022-12-15T16:33:32.686Z,21.50
2022-12-15T16:36:02.338Z,21.50
2022-12-15T16:38:34.036Z,21.60
2022-12-15T16:41:08.461Z,21.60
2022-12-15T16:43:41.581Z,21.60
2022-12-15T16:46:15.996Z,21.60
2022-12-15T16:48:45.508Z,21.60
2022-12-15T16:51:28.163Z,21.60
2022-12-15T16:53:58.841Z,21.70
2022-12-15T16:56:28.093Z,21.70
2022-12-15T16:59:30.994Z,21.70
2022-12-15T17:01:46.932Z,21.70
2022-12-15T17:04:16.857Z,21.70
2022-12-15T17:06:46.357Z,21.80
2022-12-15T17:09:20.794Z,21.80
2022-12-15T17:11:50.344Z,21.80
2022-12-15T17:14:19.578Z,21.80
2022-12-15T17:16:48.976Z,21.80
2022-12-15T17:19:21.267Z,21.80
2022-12-15T17:21:54.078Z,21.80
2022-12-15T17:24:25.012Z,21.80
2022-12-15T17:26:54.474Z,21.80
2022-12-15T17:29:26.566Z,21.80
2022-12-15T17:31:55.895Z,21.80
2022-12-15T17:34:30.376Z,21.80
2022-12-15T17:37:01.641Z,21.80
2022-12-15T17:39:34.186Z,21.80
2022-12-15T17:42:03.575Z,21.80
2022-12-15T17:44:37.477Z,21.80
2022-12-15T17:47:09.625Z,21.80
2022-12-15T17:49:39.399Z,21.80
2022-12-15T17:52:18.270Z,21.80
2022-12-15T17:54:49.050Z,21.80
2022-12-15T17:57:18.609Z,21.70
2022-12-15T17:59:47.896Z,21.70
2022-12-15T18:02:17.536Z,21.70
2022-12-15T18:04:47.244Z,21.70
2022-12-15T18:07:19.596Z,21.70
2022-12-15T18:09:51.662Z,21.70
2022-12-15T18:12:23.898Z,21.70
2022-12-15T18:14:54.348Z,21.70
2022-12-15T18:17:24.279Z,21.70
2022-12-15T18:19:54.062Z,21.70
2022-12-15T18:22:25.398Z,21.70
2022-12-15T18:24:56.113Z,21.70
2022-12-15T18:27:27.458Z,21.80
2022-12-15T18:29:57.559Z,21.80
2022-12-15T18:32:30.042Z,21.80
2022-12-15T18:34:59.424Z,21.80
2022-12-15T18:37:28.674Z,21.90
2022-12-15T18:40:04.676Z,21.90
2022-12-15T18:42:34.925Z,21.90
2022-12-15T18:45:06.215Z,22.00
2022-12-15T18:47:35.568Z,22.00
2022-12-15T18:50:05.164Z,22.10
2022-12-15T18:52:34.984Z,22.10
2022-12-15T18:55:08.398Z,22.20
2022-12-15T18:57:37.972Z,22.20
2022-12-15T19:00:19.479Z,22.30
2022-12-15T19:02:49.900Z,22.40
2022-12-15T19:05:32.777Z,22.40
2022-12-15T19:08:05.406Z,22.40
2022-12-15T19:10:36.758Z,22.80
2022-12-15T19:13:07.520Z,22.70
2022-12-15T19:15:36.992Z,22.60
2022-12-15T19:21:10.123Z,22.60
2022-12-15T19:23:39.465Z,22.50
2022-12-15T19:26:13.396Z,22.50
2022-12-15T19:28:42.873Z,22.50
2022-12-15T19:31:12.589Z,22.60
2022-12-15T19:33:42.131Z,22.60
2022-12-15T19:36:16.630Z,22.60
2022-12-15T19:38:46.848Z,22.60
2022-12-15T19:41:18.771Z,22.60
2022-12-15T19:43:48.322Z,22.50
2022-12-15T19:46:22.114Z,22.50
2022-12-15T19:48:51.441Z,22.50
2022-12-15T19:51:23.363Z,22.50
2022-12-15T19:53:52.694Z,22.50
2022-12-15T19:56:24.976Z,22.50
2022-12-15T19:58:54.521Z,22.40
2022-12-15T20:01:23.957Z,22.40
2022-12-15T20:03:54.353Z,22.40
2022-12-15T20:06:26.484Z,22.40
2022-12-15T20:08:57.159Z,22.40
2022-12-15T20:11:29.862Z,22.40
2022-12-15T20:13:59.209Z,22.40
2022-12-15T20:16:28.701Z,22.40
2022-12-15T20:18:58.069Z,22.40
2022-12-15T20:21:33.833Z,22.40
2022-12-15T20:24:08.142Z,22.40
2022-12-15T20:26:40.059Z,22.40
2022-12-15T20:29:20.007Z,22.50
2022-12-15T20:31:49.648Z,22.50
2022-12-15T20:34:27.917Z,22.50
2022-12-15T20:36:58.924Z,22.60
2022-12-15T20:39:30.895Z,22.60
2022-12-15T20:42:02.107Z,22.60
2022-12-15T20:44:31.462Z,22.60
2022-12-15T20:47:03.992Z,22.70
2022-12-15T20:49:33.336Z,22.70
2022-12-15T20:52:03.872Z,22.60
2022-12-15T20:54:33.400Z,22.60
2022-12-15T20:57:04.476Z,22.60
2022-12-15T20:59:33.953Z,22.60
2022-12-15T21:02:06.708Z,22.60
2022-12-15T21:04:36.521Z,22.50
2022-12-15T21:07:10.519Z,22.60
2022-12-15T21:09:40.224Z,22.50
2022-12-15T21:12:21.397Z,22.60
2022-12-15T21:14:51.100Z,22.60
2022-12-15T21:17:23.279Z,22.60
2022-12-15T21:19:53.193Z,22.60
2022-12-15T21:22:27.214Z,22.50
2022-12-15T21:24:58.763Z,22.50
2022-12-15T21:27:29.683Z,22.50
2022-12-15T21:29:58.970Z,22.50
2022-12-15T21:32:28.289Z,22.50
2022-12-15T21:34:57.674Z,22.40
2022-12-15T21:37:31.024Z,22.40
2022-12-15T21:40:00.849Z,22.40
2022-12-15T21:42:39.612Z,22.40
2022-12-15T21:45:16.043Z,22.40
2022-12-15T21:48:02.970Z,22.40
2022-12-15T21:50:32.313Z,22.40
2022-12-15T21:53:02.544Z,22.40
2022-12-15T21:55:32.304Z,22.40
2022-12-15T21:58:03.458Z,22.40
2022-12-15T22:00:32.792Z,22.30
2022-12-15T22:03:02.190Z,22.30
2022-12-15T22:05:31.584Z,22.30
2022-12-15T22:08:11.899Z,22.30
2022-12-15T22:10:41.272Z,22.20
2022-12-15T22:13:17.665Z,22.20
2022-12-15T22:15:47.267Z,22.20
2022-12-15T22:18:22.172Z,22.20
2022-12-15T22:20:52.598Z,22.20
2022-12-15T22:23:22.183Z,22.10
2022-12-15T22:25:55.505Z,22.10
2022-12-15T22:28:27.742Z,22.10
2022-12-15T22:30:58.451Z,22.10
2022-12-15T22:33:29.490Z,22.00
2022-12-15T22:35:58.816Z,22.00
2022-12-15T22:38:27.976Z,22.00
2022-12-15T22:40:59.980Z,22.00
2022-12-15T22:43:35.645Z,22.00
2022-12-15T22:46:06.489Z,22.00
2022-12-15T22:48:37.530Z,21.90
2022-12-15T22:51:08.035Z,21.90
2022-12-15T22:53:37.426Z,21.90
2022-12-15T22:56:14.917Z,21.90
2022-12-15T22:58:48.692Z,21.90
2022-12-15T23:01:18.077Z,21.80
2022-12-15T23:03:47.588Z,21.80
2022-12-15T23:06:16.776Z,21.80
2022-12-15T23:08:45.945Z,21.80
2022-12-15T23:11:32.796Z,21.80
2022-12-15T23:14:03.560Z,21.70
2022-12-15T23:16:32.006Z,21.70
2022-12-15T23:19:01.921Z,21.70
2022-12-15T23:21:31.194Z,21.70
2022-12-15T23:24:00.396Z,21.70
2022-12-15T23:26:29.643Z,21.60
2022-12-15T23:28:58.831Z,21.60
2022-12-15T23:31:29.605Z,21.60
2022-12-15T23:33:59.127Z,21.60
2022-12-15T23:36:29.045Z,21.60
2022-12-15T23:38:59.460Z,21.60
2022-12-15T23:41:29.496Z,21.60
2022-12-15T23:43:58.749Z,21.50
2022-12-15T23:46:29.501Z,21.50
2022-12-15T23:49:00.121Z,21.50
2022-12-15T23:51:29.414Z,21.50
2022-12-15T23:53:58.592Z,21.50
2022-12-15T23:56:27.837Z,21.50
2022-12-15T23:58:58.951Z,21.50
